createdAt,value
2018-05-03T00:02:19.592Z,71.96
2018-05-03T00:04:48.060Z,72.18
2018-05-03T00:07:16.523Z,72.83
2018-05-03T00:09:44.505Z,72.67
2018-05-03T00:12:12.385Z,73.89
2018-05-03T00:14:40.452Z,73.67
2018-05-03T00:17:08.964Z,73.73
2018-05-03T00:19:37.445Z,73.93
2018-05-03T00:22:05.238Z,74.16
2018-05-03T00:24:32.846Z,73.79
2018-05-03T00:27:00.445Z,73.68
2018-05-03T00:29:27.981Z,73.34
2018-05-03T00:31:55.517Z,73.36
2018-05-03T00:34:23.923Z,73.23
2018-05-03T00:36:52.475Z,73.27
2018-05-03T00:39:20.010Z,73.03
2018-05-03T00:41:48.314Z,73.30
2018-05-03T00:44:15.895Z,73.63
2018-05-03T00:46:43.484Z,74.08
2018-05-03T00:49:11.675Z,73.15
2018-05-03T00:51:39.709Z,73.12
2018-05-03T00:57:09.951Z,73.31
2018-05-03T00:59:37.537Z,73.56
2018-05-03T01:02:05.190Z,73.68
2018-05-03T01:04:33.210Z,73.78
2018-05-03T01:07:01.131Z,74.14
2018-05-03T01:09:29.708Z,74.29
2018-05-03T01:11:57.271Z,74.21
2018-05-03T01:14:25.567Z,73.56
2018-05-03T01:16:54.820Z,73.83
2018-05-03T01:19:22.483Z,74.54
2018-05-03T01:21:50.018Z,74.24
2018-05-03T01:24:17.612Z,74.54
2018-05-03T01:26:45.160Z,74.98
2018-05-03T01:29:12.730Z,74.71
2018-05-03T01:31:40.334Z,74.96
2018-05-03T01:34:08.766Z,74.61
2018-05-03T01:36:36.975Z,74.59
2018-05-03T01:39:05.716Z,75.02
2018-05-03T01:41:33.290Z,75.18
2018-05-03T01:44:00.866Z,75.06
2018-05-03T01:46:28.486Z,74.78
2018-05-03T01:48:56.703Z,74.68
2018-05-03T01:51:24.979Z,74.21
2018-05-03T01:53:52.667Z,73.85
2018-05-03T01:56:20.222Z,73.93
2018-05-03T01:58:47.894Z,73.83
2018-05-03T02:01:15.466Z,73.75
2018-05-03T02:03:43.796Z,73.81
2018-05-03T02:06:12.072Z,73.36
2018-05-03T02:08:41.155Z,73.07
2018-05-03T02:11:08.839Z,73.33
2018-05-03T02:13:37.224Z,73.28
2018-05-03T02:16:05.569Z,73.20
2018-05-03T02:18:33.166Z,73.34
2018-05-03T02:21:00.695Z,73.70
2018-05-03T02:23:28.295Z,73.09
2018-05-03T02:25:55.829Z,73.64
2018-05-03T02:28:23.581Z,73.77
2018-05-03T02:30:51.465Z,73.48
2018-05-03T02:33:19.025Z,73.34
2018-05-03T02:35:47.271Z,73.32
2018-05-03T02:38:14.806Z,73.68
2018-05-03T02:40:42.344Z,73.36
2018-05-03T02:43:09.918Z,73.25
2018-05-03T02:45:39.443Z,74.48
2018-05-03T02:48:07.572Z,75.20
2018-05-03T02:50:35.990Z,74.19
2018-05-03T02:53:03.528Z,74.34
2018-05-03T02:55:31.224Z,74.76
2018-05-03T02:58:16.546Z,74.28
2018-05-03T03:01:01.652Z,74.66
2018-05-03T03:03:48.402Z,75.05
2018-05-03T03:06:33.952Z,74.94
2018-05-03T03:09:16.813Z,74.30
2018-05-03T03:12:01.943Z,74.19
2018-05-03T03:14:47.775Z,74.98
2018-05-03T03:17:32.780Z,74.10
2018-05-03T03:20:32.086Z,74.21
2018-05-03T03:23:18.705Z,74.34
2018-05-03T03:29:19.504Z,74.05
2018-05-03T03:32:04.631Z,73.26
2018-05-03T03:34:32.884Z,72.41
2018-05-03T03:37:16.079Z,71.61
2018-05-03T03:40:00.965Z,70.69
2018-05-03T03:45:43.325Z,68.94
2018-05-03T03:48:12.565Z,68.34
2018-05-03T03:50:41.760Z,68.13
2018-05-03T03:53:09.741Z,67.36
2018-05-03T03:55:44.834Z,66.46
2018-05-03T03:58:13.450Z,66.64
2018-05-03T04:00:41.110Z,66.84
2018-05-03T04:03:09.285Z,66.61
2018-05-03T04:05:39.253Z,66.20
2018-05-03T04:08:07.491Z,66.11
2018-05-03T04:10:36.991Z,65.95
2018-05-03T04:13:04.795Z,66.01
2018-05-03T04:15:35.128Z,65.57
2018-05-03T04:18:14.433Z,65.03
2018-05-03T04:21:01.034Z,64.81
2018-05-03T04:23:49.951Z,64.65
2018-05-03T04:26:17.564Z,64.21
2018-05-03T04:28:52.539Z,63.92
2018-05-03T04:31:39.668Z,63.63
2018-05-03T04:34:08.910Z,63.57
2018-05-03T04:36:52.995Z,63.53
2018-05-03T04:39:26.254Z,62.87
2018-05-03T04:41:57.218Z,62.14
2018-05-03T04:44:24.778Z,61.71
2018-05-03T04:46:52.995Z,61.25
2018-05-03T04:49:22.557Z,60.90
2018-05-03T04:51:51.418Z,59.41
2018-05-03T04:54:19.054Z,59.46
2018-05-03T04:56:46.820Z,58.21
2018-05-03T04:59:16.858Z,57.57
2018-05-03T05:01:44.464Z,57.84
2018-05-03T05:04:13.102Z,57.46
2018-05-03T05:06:45.480Z,57.57
2018-05-03T05:09:14.619Z,57.78
2018-05-03T05:11:43.697Z,56.94
2018-05-03T05:14:12.096Z,56.18
2018-05-03T05:16:41.104Z,56.76
2018-05-03T05:19:10.045Z,56.71
2018-05-03T05:21:37.721Z,55.23
2018-05-03T05:24:06.201Z,55.28
2018-05-03T05:26:33.707Z,54.55
2018-05-03T05:29:02.098Z,54.49
2018-05-03T05:31:29.912Z,52.55
2018-05-03T05:33:58.054Z,51.74
2018-05-03T05:36:26.431Z,54.05
2018-05-03T05:38:54.321Z,53.53
2018-05-03T05:41:22.117Z,54.01
2018-05-03T05:43:50.553Z,53.87
2018-05-03T05:46:18.544Z,53.68
2018-05-03T05:48:46.725Z,52.56
2018-05-03T05:51:15.251Z,50.95
2018-05-03T05:53:43.112Z,52.01
2018-05-03T05:56:10.842Z,51.75
2018-05-03T05:58:38.863Z,51.36
2018-05-03T06:01:06.428Z,51.63
2018-05-03T06:03:34.613Z,51.67
2018-05-03T06:06:02.727Z,51.94
2018-05-03T06:08:31.055Z,50.83
2018-05-03T06:10:58.629Z,49.47
2018-05-03T06:13:27.047Z,48.56
2018-05-03T06:15:54.678Z,48.98
2018-05-03T06:18:22.547Z,49.80
2018-05-03T06:20:51.879Z,50.42
2018-05-03T06:23:20.037Z,50.28
2018-05-03T06:25:48.323Z,49.48
2018-05-03T06:28:15.877Z,49.50
2018-05-03T06:30:43.466Z,50.06
2018-05-03T06:33:11.109Z,50.16
2018-05-03T06:35:39.747Z,49.30
2018-05-03T06:38:08.199Z,49.80
2018-05-03T06:40:35.889Z,50.14
2018-05-03T06:43:03.465Z,49.54
2018-05-03T06:45:31.155Z,50.46
2018-05-03T06:47:58.743Z,50.69
2018-05-03T06:50:27.955Z,51.17
2018-05-03T06:52:55.962Z,51.92
2018-05-03T06:55:23.803Z,52.20
2018-05-03T06:57:51.528Z,53.00
2018-05-03T07:00:19.103Z,52.42
2018-05-03T07:02:47.628Z,52.92
2018-05-03T07:05:15.703Z,52.56
2018-05-03T07:07:45.204Z,52.48
2018-05-03T07:10:12.740Z,51.93
2018-05-03T07:12:40.404Z,51.83
2018-05-03T07:15:08.575Z,51.60
2018-05-03T07:17:36.139Z,51.67
2018-05-03T07:20:04.238Z,51.83
2018-05-03T07:22:33.517Z,51.91
2018-05-03T07:25:01.831Z,51.70
2018-05-03T07:27:29.392Z,51.38
2018-05-03T07:29:57.108Z,51.43
2018-05-03T07:32:24.683Z,51.90
2018-05-03T07:34:53.265Z,52.09
2018-05-03T07:37:21.706Z,51.98
2018-05-03T07:39:49.357Z,50.01
2018-05-03T07:42:16.978Z,51.59
2018-05-03T07:44:44.670Z,52.65
2018-05-03T07:47:12.303Z,52.71
2018-05-03T07:49:40.012Z,53.45
2018-05-03T07:52:08.894Z,54.50
2018-05-03T07:54:37.878Z,54.51
2018-05-03T07:57:05.662Z,55.01
2018-05-03T07:59:33.251Z,55.77
2018-05-03T08:02:00.967Z,56.38
2018-05-03T08:04:29.662Z,57.75
2018-05-03T08:06:58.021Z,58.12
2018-05-03T08:09:26.609Z,59.69
2018-05-03T08:11:54.377Z,60.09
2018-05-03T08:14:23.601Z,61.16
2018-05-03T08:16:51.727Z,62.70
2018-05-03T08:19:19.331Z,63.49
2018-05-03T08:21:47.746Z,64.55
2018-05-03T08:24:15.341Z,65.53
2018-05-03T08:26:43.011Z,66.34
2018-05-03T08:29:10.960Z,67.74
2018-05-03T08:31:38.585Z,67.64
2018-05-03T08:34:07.274Z,68.54
2018-05-03T08:36:35.544Z,69.01
2018-05-03T08:39:03.193Z,69.50
2018-05-03T08:41:30.802Z,70.13
2018-05-03T08:43:58.771Z,70.65
2018-05-03T08:46:26.373Z,71.05
2018-05-03T08:48:54.551Z,71.09
2018-05-03T08:51:26.777Z,71.51
2018-05-03T08:54:02.758Z,71.79
2018-05-03T08:56:30.489Z,71.96
2018-05-03T08:58:58.362Z,72.62
2018-05-03T09:01:26.052Z,73.19
2018-05-03T09:03:58.982Z,73.15
2018-05-03T09:06:27.481Z,73.59
2018-05-03T09:08:58.176Z,73.90
2018-05-03T09:11:27.190Z,74.20
2018-05-03T09:14:04.306Z,74.58
2018-05-03T09:16:31.959Z,74.13
2018-05-03T09:19:13.349Z,74.78
2018-05-03T09:21:45.941Z,74.90
2018-05-03T09:24:13.584Z,75.34
2018-05-03T09:26:41.452Z,75.90
2018-05-03T09:29:09.692Z,76.07
2018-05-03T09:31:37.227Z,76.16
2018-05-03T09:34:06.366Z,76.10
2018-05-03T09:36:36.719Z,76.32
2018-05-03T09:39:04.572Z,76.85
2018-05-03T09:41:32.151Z,76.93
2018-05-03T09:44:02.532Z,76.38
2018-05-03T09:46:30.282Z,75.78
2018-05-03T09:48:58.110Z,76.30
2018-05-03T09:51:26.322Z,76.65
2018-05-03T09:53:59.245Z,77.18
2018-05-03T09:56:27.533Z,77.16
2018-05-03T09:58:56.151Z,77.12
2018-05-03T10:01:24.681Z,77.26
2018-05-03T10:03:54.362Z,77.06
2018-05-03T10:06:24.410Z,77.40
2018-05-03T10:08:54.801Z,77.39
2018-05-03T10:11:24.952Z,76.87
2018-05-03T10:13:57.061Z,76.41
2018-05-03T10:16:29.922Z,76.70
2018-05-03T10:18:57.591Z,77.29
2018-05-03T10:21:26.810Z,77.30
2018-05-03T10:23:56.053Z,77.46
2018-05-03T10:26:25.432Z,77.42
2018-05-03T10:28:52.993Z,77.91
2018-05-03T10:31:21.828Z,78.38
2018-05-03T10:33:50.551Z,78.17
2018-05-03T10:36:18.932Z,77.86
2018-05-03T10:38:46.734Z,78.10
2018-05-03T10:41:14.414Z,78.37
2018-05-03T10:43:42.722Z,78.66
2018-05-03T10:46:10.569Z,78.50
2018-05-03T10:48:38.190Z,78.61
2018-05-03T10:51:06.276Z,79.01
2018-05-03T10:53:34.032Z,79.26
2018-05-03T10:56:02.677Z,79.54
2018-05-03T10:58:30.332Z,79.84
2018-05-03T11:00:57.945Z,79.43
2018-05-03T11:03:27.263Z,79.33
2018-05-03T11:06:02.190Z,79.70
2018-05-03T11:08:30.566Z,79.88
2018-05-03T11:10:58.208Z,79.80
2018-05-03T11:13:27.635Z,79.99
2018-05-03T11:15:55.388Z,80.21
2018-05-03T11:18:24.944Z,79.69
2018-05-03T11:20:52.987Z,79.60
2018-05-03T11:23:22.725Z,79.91
2018-05-03T11:25:50.428Z,80.13
2018-05-03T11:28:19.278Z,80.03
2018-05-03T11:30:46.896Z,80.03
2018-05-03T11:33:17.814Z,80.10
2018-05-03T11:35:46.359Z,80.05
2018-05-03T11:38:14.012Z,80.33
2018-05-03T11:40:43.655Z,80.18
2018-05-03T11:43:11.411Z,79.92
2018-05-03T11:45:40.098Z,79.93
2018-05-03T11:48:07.722Z,80.14
2018-05-03T11:50:36.482Z,80.12
2018-05-03T11:53:04.039Z,80.22
2018-05-03T11:55:33.224Z,80.28
2018-05-03T11:58:00.871Z,79.96
2018-05-03T12:00:30.692Z,79.74
2018-05-03T12:02:58.890Z,79.55
2018-05-03T12:05:27.283Z,79.44
2018-05-03T12:07:57.882Z,79.68
2018-05-03T12:10:26.853Z,79.62
2018-05-03T12:12:56.323Z,79.07
2018-05-03T12:15:25.153Z,78.99
2018-05-03T12:17:52.856Z,79.03
2018-05-03T12:20:20.497Z,78.74
2018-05-03T12:22:48.639Z,78.77
2018-05-03T12:25:16.901Z,78.36
2018-05-03T12:27:45.750Z,77.77
2018-05-03T12:30:14.744Z,77.62
2018-05-03T12:32:42.325Z,77.62
2018-05-03T12:35:12.352Z,77.79
2018-05-03T12:37:41.036Z,77.48
2018-05-03T12:40:08.607Z,77.57
2018-05-03T12:42:36.187Z,77.36
2018-05-03T12:45:03.873Z,76.86
2018-05-03T12:47:31.636Z,76.83
2018-05-03T12:50:00.388Z,76.94
2018-05-03T12:52:28.541Z,76.87
2018-05-03T12:54:56.166Z,77.07
2018-05-03T12:57:26.027Z,77.15
2018-05-03T12:59:53.909Z,77.09
2018-05-03T13:02:22.418Z,77.15
2018-05-03T13:04:50.068Z,76.85
2018-05-03T13:07:18.324Z,76.30
2018-05-03T13:09:46.220Z,76.65
2018-05-03T13:12:13.855Z,76.71
2018-05-03T13:14:43.021Z,76.20
2018-05-03T13:17:10.597Z,76.49
2018-05-03T13:19:38.535Z,76.39
2018-05-03T13:22:06.832Z,75.71
2018-05-03T13:24:35.169Z,76.03
2018-05-03T13:27:02.776Z,76.19
2018-05-03T13:29:30.936Z,75.66
2018-05-03T13:31:58.857Z,75.75
2018-05-03T13:34:27.560Z,75.97
2018-05-03T13:36:55.256Z,76.14
2018-05-03T13:39:22.798Z,75.99
2018-05-03T13:41:50.616Z,76.07
2018-05-03T13:44:18.184Z,75.98
2018-05-03T13:46:45.773Z,76.22
2018-05-03T13:49:13.368Z,76.10
2018-05-03T13:51:42.111Z,76.45
2018-05-03T13:54:09.688Z,76.40
2018-05-03T13:56:37.436Z,76.15
2018-05-03T13:59:05.039Z,76.41
2018-05-03T14:01:32.618Z,76.71
2018-05-03T14:04:00.829Z,76.27
2018-05-03T14:06:29.047Z,76.45
2018-05-03T14:08:57.602Z,76.26
2018-05-03T14:11:25.299Z,76.74
2018-05-03T14:13:53.452Z,76.56
2018-05-03T14:16:21.295Z,76.57
2018-05-03T14:18:48.850Z,76.56
2018-05-03T14:21:17.243Z,76.40
2018-05-03T14:23:45.563Z,76.50
2018-05-03T14:26:13.142Z,75.75
2018-05-03T14:28:41.454Z,75.55
2018-05-03T14:31:09.149Z,75.46
2018-05-03T14:33:36.727Z,75.30
2018-05-03T14:36:05.600Z,74.90
2018-05-03T14:38:33.283Z,74.93
2018-05-03T14:41:00.834Z,74.87
2018-05-03T14:43:28.415Z,74.31
2018-05-03T14:45:56.108Z,74.24
2018-05-03T14:48:23.902Z,74.06
2018-05-03T14:50:52.460Z,74.06
2018-05-03T14:53:20.658Z,74.05
2018-05-03T14:55:48.392Z,74.09
2018-05-03T14:58:16.015Z,74.03
2018-05-03T15:00:43.639Z,74.50
2018-05-03T15:03:12.458Z,74.75
2018-05-03T15:05:40.856Z,74.86
2018-05-03T15:08:08.858Z,75.28
2018-05-03T15:10:36.465Z,75.38
2018-05-03T15:13:03.976Z,75.28
2018-05-03T15:15:32.239Z,75.71
2018-05-03T15:18:00.660Z,76.32
2018-05-03T15:20:28.246Z,76.47
2018-05-03T15:22:56.392Z,77.02
2018-05-03T15:25:25.084Z,76.79
2018-05-03T15:27:53.452Z,77.42
2018-05-03T15:30:21.716Z,77.23
2018-05-03T15:32:49.307Z,76.67
2018-05-03T15:35:17.747Z,76.50
2018-05-03T15:37:45.333Z,76.54
2018-05-03T15:40:13.076Z,76.26
2018-05-03T15:42:41.071Z,75.77
2018-05-03T15:45:08.653Z,75.20
2018-05-03T15:47:36.227Z,74.05
2018-05-03T15:50:03.943Z,73.33
2018-05-03T15:52:32.186Z,71.84
2018-05-03T15:54:59.716Z,70.03
2018-05-03T15:57:27.254Z,66.96
2018-05-03T15:59:55.712Z,65.11
2018-05-03T16:02:24.800Z,65.83
2018-05-03T16:04:52.881Z,66.31
2018-05-03T16:07:21.460Z,66.98
2018-05-03T16:09:49.590Z,67.23
2018-05-03T16:12:17.135Z,67.48
2018-05-03T16:14:45.475Z,68.81
2018-05-03T16:17:13.672Z,69.75
2018-05-03T16:19:41.465Z,70.26
2018-05-03T16:22:10.175Z,70.62
2018-05-03T16:24:38.656Z,69.89
2018-05-03T16:27:06.245Z,68.75
2018-05-03T16:29:34.497Z,62.68
2018-05-03T16:32:02.065Z,59.92
2018-05-03T16:34:30.225Z,58.82
2018-05-03T16:36:57.765Z,57.49
2018-05-03T16:39:25.472Z,57.52
2018-05-03T16:41:53.154Z,58.59
2018-05-03T16:44:20.907Z,57.98
2018-05-03T16:46:48.616Z,55.92
2018-05-03T16:49:16.140Z,54.96
2018-05-03T16:51:44.208Z,53.37
2018-05-03T16:54:12.535Z,54.58
2018-05-03T16:56:40.089Z,56.99
2018-05-03T16:59:07.627Z,57.63
2018-05-03T17:01:35.237Z,58.38
2018-05-03T17:04:03.851Z,59.36
2018-05-03T17:06:32.477Z,60.06
2018-05-03T17:09:00.614Z,59.10
2018-05-03T17:11:28.248Z,57.61
2018-05-03T17:13:56.413Z,56.08
2018-05-03T17:16:24.317Z,53.92
2018-05-03T17:18:51.883Z,54.72
2018-05-03T17:21:19.450Z,55.59
2018-05-03T17:23:47.536Z,55.53
2018-05-03T17:26:15.094Z,55.20
2018-05-03T17:28:43.484Z,57.01
2018-05-03T17:31:11.751Z,58.41
2018-05-03T17:34:04.707Z,59.34
2018-05-03T17:36:32.703Z,59.44
2018-05-03T17:39:00.321Z,58.11
2018-05-03T17:41:27.902Z,57.22
2018-05-03T17:43:55.473Z,56.15
2018-05-03T17:46:23.253Z,55.44
2018-05-03T17:48:50.930Z,54.71
2018-05-03T17:51:19.811Z,55.12
2018-05-03T17:53:47.827Z,54.79
2018-05-03T17:56:15.446Z,54.87
2018-05-03T17:58:43.190Z,54.17
2018-05-03T18:01:10.769Z,54.46
2018-05-03T18:03:38.842Z,54.60
2018-05-03T18:06:06.941Z,54.44
2018-05-03T18:08:35.026Z,54.40
2018-05-03T18:11:02.559Z,54.72
2018-05-03T18:13:30.674Z,55.16
2018-05-03T18:15:58.309Z,56.16
2018-05-03T18:18:25.885Z,57.13
2018-05-03T18:20:54.588Z,58.01
2018-05-03T18:23:23.412Z,59.04
2018-05-03T18:25:51.772Z,59.99
2018-05-03T18:28:20.604Z,60.52
2018-05-03T18:30:48.203Z,61.31
2018-05-03T18:33:15.768Z,61.92
2018-05-03T18:35:44.227Z,61.96
2018-05-03T18:38:11.848Z,62.73
2018-05-03T18:40:40.576Z,63.14
2018-05-03T18:43:08.253Z,63.14
2018-05-03T18:45:36.176Z,63.22
2018-05-03T18:48:04.042Z,63.40
2018-05-03T18:50:35.893Z,63.88
2018-05-03T18:53:04.564Z,64.18
2018-05-03T18:55:34.196Z,64.08
2018-05-03T18:58:02.628Z,64.56
2018-05-03T19:00:33.511Z,64.65
2018-05-03T19:03:01.989Z,64.92
2018-05-03T19:05:31.799Z,65.20
2018-05-03T19:07:59.976Z,65.08
2018-05-03T19:10:28.256Z,65.37
2018-05-03T19:12:56.050Z,65.59
2018-05-03T19:15:24.278Z,65.66
2018-05-03T19:17:52.115Z,65.90
2018-05-03T19:20:21.871Z,66.10
2018-05-03T19:22:50.211Z,66.05
2018-05-03T19:25:26.873Z,66.20
2018-05-03T19:27:55.544Z,66.30
2018-05-03T19:30:23.554Z,66.34
2018-05-03T19:32:53.053Z,66.46
2018-05-03T19:35:29.145Z,66.61
2018-05-03T19:40:32.987Z,66.81
2018-05-03T19:43:01.315Z,66.92
2018-05-03T19:45:28.957Z,67.06
2018-05-03T19:47:56.770Z,67.22
2018-05-03T19:50:25.538Z,67.17
2018-05-03T19:58:56.970Z,67.06
2018-05-03T20:01:28.859Z,67.29
2018-05-03T20:06:47.465Z,67.40
2018-05-03T20:11:56.003Z,67.61
2018-05-03T20:14:27.551Z,67.61
2018-05-03T20:16:56.044Z,67.92
2018-05-03T20:19:26.249Z,67.98
2018-05-03T20:21:55.142Z,67.92
2018-05-03T20:24:31.398Z,68.06
2018-05-03T20:26:59.157Z,68.08
2018-05-03T20:29:31.189Z,68.20
2018-05-03T20:32:03.040Z,68.10
2018-05-03T20:34:32.333Z,68.39
2018-05-03T20:37:06.822Z,68.39
2018-05-03T20:39:46.622Z,68.60
2018-05-03T20:42:14.596Z,68.62
2018-05-03T20:44:45.592Z,68.67
2018-05-03T20:47:17.385Z,68.79
2018-05-03T20:49:47.193Z,68.84
2018-05-03T20:52:18.710Z,68.84
2018-05-03T20:54:55.254Z,68.85
2018-05-03T20:57:26.229Z,68.79
2018-05-03T20:59:57.704Z,68.74
2018-05-03T21:02:27.773Z,68.85
2018-05-03T21:04:56.748Z,68.82
2018-05-03T21:07:28.935Z,68.78
2018-05-03T21:10:00.170Z,68.83
2018-05-03T21:12:29.642Z,68.68
2018-05-03T21:15:01.793Z,68.53
2018-05-03T21:17:33.175Z,68.67
2018-05-03T21:20:01.526Z,68.54
2018-05-03T21:22:40.029Z,68.63
2018-05-03T21:25:08.841Z,68.66
2018-05-03T21:27:37.254Z,68.54
2018-05-03T21:30:08.024Z,68.46
2018-05-03T21:32:36.592Z,68.45
2018-05-03T21:35:04.437Z,68.42
2018-05-03T21:37:36.821Z,68.42
2018-05-03T21:40:06.293Z,68.40
2018-05-03T21:42:36.683Z,68.50
2018-05-03T21:45:05.626Z,68.54
2018-05-03T21:47:33.657Z,68.70
2018-05-03T21:50:01.212Z,68.69
2018-05-03T21:52:29.599Z,68.79
2018-05-03T21:54:57.913Z,68.80
2018-05-03T21:57:25.644Z,68.99
2018-05-03T21:59:53.295Z,69.10
2018-05-03T22:02:22.651Z,69.31
2018-05-03T22:04:50.386Z,69.50
2018-05-03T22:07:18.798Z,69.66
2018-05-03T22:09:47.173Z,69.93
2018-05-03T22:12:15.015Z,69.99
2018-05-03T22:14:43.131Z,70.21
2018-05-03T22:17:10.800Z,70.29
2018-05-03T22:19:39.506Z,70.36
2018-05-03T22:22:07.678Z,70.58
2018-05-03T22:24:35.232Z,70.70
2018-05-03T22:27:02.848Z,70.78
2018-05-03T22:29:31.551Z,70.73
2018-05-03T22:31:59.102Z,70.94
2018-05-03T22:34:26.692Z,71.01
2018-05-03T22:36:54.396Z,71.09
2018-05-03T22:39:21.978Z,71.20
2018-05-03T22:41:50.202Z,71.24
2018-05-03T22:44:17.788Z,71.38
2018-05-03T22:46:45.317Z,71.50
2018-05-03T22:49:12.939Z,71.60
2018-05-03T22:51:41.418Z,71.78
2018-05-03T22:54:09.904Z,71.79
2018-05-03T22:56:37.439Z,71.92
2018-05-03T22:59:05.022Z,72.04
2018-05-03T23:01:33.900Z,72.21
2018-05-03T23:04:02.520Z,72.32
2018-05-03T23:06:30.647Z,72.47
2018-05-03T23:08:58.650Z,72.49
2018-05-03T23:11:26.822Z,72.68
2018-05-03T23:13:56.002Z,72.65
2018-05-03T23:16:23.561Z,72.74
2018-05-03T23:18:52.163Z,72.73
2018-05-03T23:21:19.758Z,72.82
2018-05-03T23:23:48.650Z,72.73
2018-05-03T23:26:16.201Z,72.88
2018-05-03T23:28:44.483Z,72.95
2018-05-03T23:31:12.097Z,73.14
2018-05-03T23:33:39.652Z,73.17
2018-05-03T23:36:07.266Z,73.28
2018-05-03T23:38:34.809Z,73.51
2018-05-03T23:41:03.360Z,73.56
2018-05-03T23:43:30.914Z,73.57
2018-05-03T23:45:58.528Z,73.81
2018-05-03T23:48:26.264Z,73.88
2018-05-03T23:50:54.774Z,74.08
2018-05-03T23:53:23.156Z,74.07
2018-05-03T23:55:50.942Z,74.06
2018-05-03T23:58:18.575Z,73.93
